createdAt,value
2017-04-06T00:00:13.674Z,20.42
2017-04-06T00:00:45.983Z,20.35
2017-04-06T00:01:18.296Z,20.34
2017-04-06T00:01:50.601Z,20.32
2017-04-06T00:02:22.897Z,20.26
2017-04-06T00:02:55.196Z,20.19
2017-04-06T00:03:27.512Z,20.26
2017-04-06T00:03:59.815Z,20.32
2017-04-06T00:04:32.135Z,20.37
2017-04-06T00:05:04.437Z,20.23
2017-04-06T00:05:36.749Z,20.29
2017-04-06T00:06:09.058Z,20.32
2017-04-06T00:06:41.357Z,20.29
2017-04-06T00:07:13.657Z,20.25
2017-04-06T00:07:45.958Z,20.29
2017-04-06T00:08:18.251Z,20.27
2017-04-06T00:08:50.577Z,20.34
2017-04-06T00:09:22.882Z,20.26
2017-04-06T00:09:55.186Z,20.34
2017-04-06T00:10:27.480Z,20.2
2017-04-06T00:10:59.808Z,20.38
2017-04-06T00:11:32.109Z,20.26
2017-04-06T00:12:04.419Z,20.23
2017-04-06T00:12:36.723Z,20.25
2017-04-06T00:13:08.998Z,20.23
2017-04-06T00:13:41.289Z,20.26
2017-04-06T00:14:13.611Z,20.32
2017-04-06T00:14:45.919Z,20.37
2017-04-06T00:15:18.230Z,20.34
2017-04-06T00:15:50.550Z,20.3
2017-04-06T00:16:22.856Z,20.25
2017-04-06T00:16:55.165Z,20.35
2017-04-06T00:17:27.471Z,20.25
2017-04-06T00:17:59.767Z,20.25
2017-04-06T00:18:32.070Z,20.26
2017-04-06T00:19:04.387Z,20.26
2017-04-06T00:19:36.702Z,20.23
2017-04-06T00:20:09.002Z,20.32
2017-04-06T00:20:41.305Z,20.38
2017-04-06T00:21:13.602Z,20.34
2017-04-06T00:21:45.905Z,20.37
2017-04-06T00:22:18.210Z,20.23
2017-04-06T00:22:50.462Z,20.25
2017-04-06T00:23:22.723Z,20.27
2017-04-06T00:23:54.980Z,20.26
2017-04-06T00:24:27.234Z,20.25
2017-04-06T00:24:59.489Z,20.2
2017-04-06T00:25:31.786Z,20.25
2017-04-06T00:26:04.049Z,20.32
2017-04-06T00:26:36.301Z,20.25
2017-04-06T00:27:08.562Z,20.23
2017-04-06T00:27:40.816Z,20.26
2017-04-06T00:28:13.077Z,20.22
2017-04-06T00:28:45.408Z,20.25
2017-04-06T00:29:17.688Z,20.25
2017-04-06T00:29:49.938Z,20.26
2017-04-06T00:30:22.826Z,20.22
2017-04-06T00:30:55.063Z,20.22
2017-04-06T00:31:27.308Z,20.32
2017-04-06T00:31:59.544Z,20.3
2017-04-06T00:32:31.817Z,20.26
2017-04-06T00:33:04.074Z,20.26
2017-04-06T00:33:36.328Z,20.35
2017-04-06T00:34:08.594Z,20.2
2017-04-06T00:34:41.013Z,20.23
2017-04-06T00:35:13.266Z,20.22
2017-04-06T00:35:45.520Z,20.23
2017-04-06T00:36:17.760Z,20.25
2017-04-06T00:36:50.003Z,20.26
2017-04-06T00:37:22.266Z,20.26
2017-04-06T00:37:54.517Z,20.23
2017-04-06T00:38:26.784Z,20.25
2017-04-06T00:38:59.044Z,20.25
2017-04-06T00:39:31.292Z,20.25
2017-04-06T00:40:03.553Z,20.34
2017-04-06T00:40:35.906Z,20.26
2017-04-06T00:41:08.156Z,20.26
2017-04-06T00:41:40.403Z,20.23
2017-04-06T00:42:12.676Z,20.32
2017-04-06T00:42:44.968Z,20.32
2017-04-06T00:43:17.270Z,20.23
2017-04-06T00:43:49.572Z,20.26
2017-04-06T00:44:21.882Z,20.26
2017-04-06T00:44:54.186Z,20.3
2017-04-06T00:45:26.482Z,20.3
2017-04-06T00:45:58.801Z,20.22
2017-04-06T00:46:31.094Z,20.23
2017-04-06T00:47:03.395Z,20.25
2017-04-06T00:47:35.689Z,20.27
2017-04-06T00:48:08.022Z,20.3
2017-04-06T00:48:40.332Z,20.25
2017-04-06T00:49:12.617Z,20.2
2017-04-06T00:49:44.943Z,20.3
2017-04-06T00:50:17.246Z,20.3
2017-04-06T00:50:49.570Z,20.35
2017-04-06T00:51:21.878Z,20.29
2017-04-06T00:51:54.183Z,20.35
2017-04-06T00:52:26.421Z,20.27
2017-04-06T00:52:58.699Z,20.29
2017-04-06T00:53:30.959Z,20.32
2017-04-06T00:54:03.202Z,20.18
2017-04-06T00:54:35.449Z,20.27
2017-04-06T00:55:07.740Z,20.16
2017-04-06T00:55:40.017Z,20.18
2017-04-06T00:56:12.277Z,20.22
2017-04-06T00:56:44.522Z,20.19
2017-04-06T00:57:16.780Z,20.2
2017-04-06T00:57:49.050Z,20.19
2017-04-06T00:58:21.302Z,20.15
2017-04-06T00:58:53.563Z,20.16
2017-04-06T00:59:25.905Z,20.2
2017-04-06T00:59:58.155Z,20.26
2017-04-06T01:00:30.412Z,20.23
2017-04-06T01:01:02.672Z,20.29
2017-04-06T01:01:34.929Z,20.18
2017-04-06T01:02:07.183Z,20.16
2017-04-06T01:02:39.478Z,20.18
2017-04-06T01:03:11.756Z,20.19
2017-04-06T01:03:44.045Z,20.19
2017-04-06T01:04:16.346Z,20.18
2017-04-06T01:04:48.642Z,20.2
2017-04-06T01:05:20.948Z,20.16
2017-04-06T01:05:53.256Z,20.2
2017-04-06T01:06:25.568Z,20.2
2017-04-06T01:06:57.890Z,20.2
2017-04-06T01:07:30.196Z,20.15
2017-04-06T01:08:02.501Z,20.12
2017-04-06T01:08:34.813Z,20.15
2017-04-06T01:09:07.104Z,20.25
2017-04-06T01:09:39.387Z,20.18
2017-04-06T01:10:11.695Z,20.18
2017-04-06T01:10:43.992Z,20.18
2017-04-06T01:11:16.289Z,20.19
2017-04-06T01:11:48.601Z,20.12
2017-04-06T01:12:20.908Z,20.16
2017-04-06T01:12:53.215Z,20.12
2017-04-06T01:13:25.529Z,20.15
2017-04-06T01:13:57.852Z,20.2
2017-04-06T01:14:30.158Z,20.22
2017-04-06T01:15:02.456Z,20.16
2017-04-06T01:15:34.757Z,20.22
2017-04-06T01:16:07.045Z,20.2
2017-04-06T01:16:39.379Z,20.19
2017-04-06T01:17:11.682Z,20.18
2017-04-06T01:17:44.010Z,20.19
2017-04-06T01:18:16.311Z,20.1
2017-04-06T01:18:48.608Z,20.19
2017-04-06T01:19:20.902Z,20.19
2017-04-06T01:19:53.207Z,20.19
2017-04-06T01:20:25.507Z,20.23
2017-04-06T01:20:57.805Z,20.11
2017-04-06T01:21:30.109Z,20.18
2017-04-06T01:22:02.405Z,20.18
2017-04-06T01:22:34.662Z,20.16
2017-04-06T01:23:06.919Z,20.1
2017-04-06T01:23:39.241Z,20.05
2017-04-06T01:24:11.494Z,20.19
2017-04-06T01:24:43.805Z,20.08
2017-04-06T01:25:16.063Z,20.08
2017-04-06T01:25:48.305Z,20.16
2017-04-06T01:26:20.551Z,20.11
2017-04-06T01:26:52.807Z,20.1
2017-04-06T01:27:25.071Z,20.19
2017-04-06T01:27:57.433Z,20.18
2017-04-06T01:28:29.721Z,20.16
2017-04-06T01:29:01.982Z,20.23
2017-04-06T01:29:34.213Z,20.19
2017-04-06T01:30:06.463Z,20.18
2017-04-06T01:30:39.488Z,20.16
2017-04-06T01:31:11.732Z,20.15
2017-04-06T01:31:43.977Z,20.16
2017-04-06T01:32:16.216Z,20.12
2017-04-06T01:32:48.487Z,20.16
2017-04-06T01:33:21.449Z,20.2
2017-04-06T01:33:53.728Z,20.18
2017-04-06T01:34:26.799Z,20.19
2017-04-06T01:34:59.057Z,20.12
2017-04-06T01:35:31.342Z,20.16
2017-04-06T01:36:03.603Z,20.12
2017-04-06T01:36:35.874Z,20.18
2017-04-06T01:37:08.135Z,20.18
2017-04-06T01:37:40.381Z,20.16
2017-04-06T01:38:12.619Z,20.16
2017-04-06T01:38:44.873Z,20.15
2017-04-06T01:39:17.129Z,20.12
2017-04-06T01:39:50.395Z,20.15
2017-04-06T01:40:22.663Z,20.16
2017-04-06T01:40:54.913Z,20.16
2017-04-06T01:41:27.963Z,20.15
2017-04-06T01:42:00.235Z,20.19
2017-04-06T01:42:32.519Z,20.19
2017-04-06T01:43:04.845Z,20.19
2017-04-06T01:43:37.140Z,20.19
2017-04-06T01:44:09.429Z,20.2
2017-04-06T01:44:41.752Z,20.16
2017-04-06T01:45:14.068Z,20.15
2017-04-06T01:45:46.365Z,20.16
2017-04-06T01:46:18.667Z,20.19
2017-04-06T01:46:50.975Z,20.18
2017-04-06T01:47:23.274Z,20.18
2017-04-06T01:47:55.589Z,20.16
2017-04-06T01:48:27.892Z,20.18
2017-04-06T01:49:00.182Z,20.26
2017-04-06T01:49:32.478Z,20.16
2017-04-06T01:50:04.797Z,20.22
2017-04-06T01:50:37.125Z,20.25
2017-04-06T01:51:09.424Z,20.26
2017-04-06T01:51:41.719Z,20.22
2017-04-06T01:52:14.029Z,20.27
2017-04-06T01:52:46.339Z,20.35
2017-04-06T01:53:18.642Z,20.29
2017-04-06T01:53:50.932Z,20.25
2017-04-06T01:54:23.228Z,20.27
2017-04-06T01:54:55.516Z,20.26
2017-04-06T01:55:27.810Z,20.27
2017-04-06T01:56:00.124Z,20.27
2017-04-06T01:56:32.413Z,20.37
2017-04-06T01:57:04.729Z,20.32
2017-04-06T01:57:37.029Z,20.2
2017-04-06T01:58:09.336Z,20.27
2017-04-06T01:58:41.637Z,20.22
2017-04-06T01:59:13.938Z,20.26
2017-04-06T01:59:46.251Z,20.25
2017-04-06T02:00:18.565Z,20.26
2017-04-06T02:00:50.871Z,20.27
2017-04-06T02:01:23.189Z,20.27
2017-04-06T02:01:55.494Z,20.27
2017-04-06T02:02:27.752Z,20.34
2017-04-06T02:03:00.012Z,20.34
2017-04-06T02:03:32.277Z,20.25
2017-04-06T02:04:04.541Z,20.27
2017-04-06T02:04:36.808Z,20.34
2017-04-06T02:05:09.070Z,20.32
2017-04-06T02:05:41.326Z,20.35
2017-04-06T02:06:13.568Z,20.32
2017-04-06T02:06:45.807Z,20.25
2017-04-06T02:07:18.217Z,20.34
2017-04-06T02:07:50.472Z,20.35
2017-04-06T02:08:22.720Z,20.38
2017-04-06T02:08:54.958Z,20.38
2017-04-06T02:09:27.203Z,20.3
2017-04-06T02:10:00.332Z,20.3
2017-04-06T02:10:32.586Z,20.32
2017-04-06T02:11:04.877Z,20.32
2017-04-06T02:11:37.147Z,20.32
2017-04-06T02:12:09.410Z,20.32
2017-04-06T02:12:41.721Z,20.27
2017-04-06T02:13:14.017Z,20.32
2017-04-06T02:13:46.315Z,20.32
2017-04-06T02:14:18.613Z,20.35
2017-04-06T02:14:50.951Z,20.32
2017-04-06T02:15:23.252Z,20.35
2017-04-06T02:15:55.554Z,20.26
2017-04-06T02:16:27.855Z,20.38
2017-04-06T02:17:00.152Z,20.35
2017-04-06T02:17:32.455Z,20.32
2017-04-06T02:18:04.766Z,20.35
2017-04-06T02:18:37.061Z,20.37
2017-04-06T02:19:09.367Z,20.32
2017-04-06T02:19:41.684Z,20.41
2017-04-06T02:20:13.972Z,20.42
2017-04-06T02:20:46.258Z,20.4
2017-04-06T02:21:18.569Z,20.35
2017-04-06T02:21:50.941Z,20.37
2017-04-06T02:22:23.182Z,20.38
2017-04-06T02:22:55.937Z,20.38
2017-04-06T02:23:28.197Z,20.41
2017-04-06T02:24:00.452Z,20.32
2017-04-06T02:24:32.709Z,20.37
2017-04-06T02:25:04.964Z,20.37
2017-04-06T02:25:37.235Z,20.37
2017-04-06T02:26:09.490Z,20.37
2017-04-06T02:26:41.762Z,20.34
2017-04-06T02:27:14.021Z,20.37
2017-04-06T02:27:46.280Z,20.37
2017-04-06T02:28:18.530Z,20.38
2017-04-06T02:28:50.780Z,20.35
2017-04-06T02:29:23.057Z,20.38
2017-04-06T02:29:55.319Z,20.35
2017-04-06T02:30:27.576Z,20.35
2017-04-06T02:30:59.837Z,20.37
2017-04-06T02:31:32.108Z,20.34
2017-04-06T02:32:04.378Z,20.34
2017-04-06T02:32:36.662Z,20.3
2017-04-06T02:33:08.940Z,20.35
2017-04-06T02:33:41.184Z,20.32
2017-04-06T02:34:13.436Z,20.35
2017-04-06T02:34:45.707Z,20.25
2017-04-06T02:35:17.959Z,20.34
2017-04-06T02:35:50.256Z,20.26
2017-04-06T02:36:22.529Z,20.26
2017-04-06T02:36:54.800Z,20.26
2017-04-06T02:37:27.988Z,20.34
2017-04-06T02:38:00.241Z,20.25
2017-04-06T02:38:32.500Z,20.25
2017-04-06T02:39:04.751Z,20.37
2017-04-06T02:39:37.019Z,20.25
2017-04-06T02:40:09.308Z,20.29
2017-04-06T02:40:41.574Z,20.25
2017-04-06T02:41:13.836Z,20.26
2017-04-06T02:41:46.110Z,20.23
2017-04-06T02:42:18.445Z,20.32
2017-04-06T02:42:50.698Z,20.23
2017-04-06T02:43:22.937Z,20.25
2017-04-06T02:43:55.191Z,20.26
2017-04-06T02:44:27.432Z,20.18
2017-04-06T02:44:59.687Z,20.23
2017-04-06T02:45:32.885Z,20.32
2017-04-06T02:46:05.161Z,20.37
2017-04-06T02:46:37.955Z,20.34
2017-04-06T02:47:10.234Z,20.22
2017-04-06T02:47:42.510Z,20.27
2017-04-06T02:48:14.761Z,20.26
2017-04-06T02:48:47.964Z,20.32
2017-04-06T02:49:20.237Z,20.26
2017-04-06T02:49:52.496Z,20.37
2017-04-06T02:50:24.754Z,20.23
2017-04-06T02:50:57.022Z,20.23
2017-04-06T02:51:29.285Z,20.25
2017-04-06T02:52:01.534Z,20.29
2017-04-06T02:52:33.812Z,20.22
2017-04-06T02:53:06.092Z,20.22
2017-04-06T02:53:38.348Z,20.23
2017-04-06T02:54:11.390Z,20.2
2017-04-06T02:54:44.394Z,20.25
2017-04-06T02:55:17.496Z,20.26
2017-04-06T02:55:49.747Z,20.3
2017-04-06T02:56:22.007Z,20.3
2017-04-06T02:56:54.245Z,20.3
2017-04-06T02:57:26.488Z,20.27
2017-04-06T02:57:58.752Z,20.29
2017-04-06T02:58:30.995Z,20.29
2017-04-06T02:59:03.229Z,20.32
2017-04-06T02:59:35.501Z,20.23
2017-04-06T03:00:07.750Z,20.27
2017-04-06T03:00:40.016Z,20.3
2017-04-06T03:01:12.289Z,20.29
2017-04-06T03:01:44.547Z,20.23
2017-04-06T03:02:16.810Z,20.32
2017-04-06T03:02:49.107Z,20.22
2017-04-06T03:03:21.408Z,20.29
2017-04-06T03:03:53.703Z,20.23
2017-04-06T03:04:26.003Z,20.26
2017-04-06T03:04:58.308Z,20.35
2017-04-06T03:05:30.602Z,20.27
2017-04-06T03:06:02.901Z,20.29
2017-04-06T03:06:35.191Z,20.25
2017-04-06T03:07:07.489Z,20.3
2017-04-06T03:07:39.791Z,20.3
2017-04-06T03:08:12.091Z,20.32
2017-04-06T03:08:44.389Z,20.18
2017-04-06T03:09:16.707Z,20.27
2017-04-06T03:09:49.022Z,20.32
2017-04-06T03:10:21.345Z,20.29
2017-04-06T03:10:53.643Z,20.29
2017-04-06T03:11:25.942Z,20.29
2017-04-06T03:11:58.239Z,20.32
2017-04-06T03:12:30.506Z,20.29
2017-04-06T03:13:02.760Z,20.26
2017-04-06T03:13:35.016Z,20.3
2017-04-06T03:14:07.279Z,20.26
2017-04-06T03:14:39.526Z,20.23
2017-04-06T03:15:11.774Z,20.2
2017-04-06T03:15:44.034Z,20.26
2017-04-06T03:16:16.350Z,20.2
2017-04-06T03:16:48.601Z,20.2
2017-04-06T03:17:20.886Z,20.27
2017-04-06T03:17:53.133Z,20.3
2017-04-06T03:18:25.379Z,20.29
2017-04-06T03:18:58.347Z,20.12
2017-04-06T03:19:31.410Z,20.27
2017-04-06T03:20:03.665Z,20.25
2017-04-06T03:20:35.908Z,20.18
2017-04-06T03:21:08.172Z,20.2
2017-04-06T03:21:40.462Z,20.23
2017-04-06T03:22:12.857Z,20.26
2017-04-06T03:22:45.106Z,20.15
2017-04-06T03:23:17.369Z,20.2
2017-04-06T03:23:49.613Z,20.2
2017-04-06T03:24:21.858Z,20.16
2017-04-06T03:24:54.102Z,20.12
2017-04-06T03:25:26.422Z,20.18
2017-04-06T03:25:58.671Z,20.18
2017-04-06T03:26:30.920Z,20.15
2017-04-06T03:27:03.186Z,20.12
2017-04-06T03:27:35.454Z,20.2
2017-04-06T03:28:07.702Z,20.12
2017-04-06T03:28:40.924Z,20.25
2017-04-06T03:29:13.174Z,20.18
2017-04-06T03:29:45.429Z,20.19
2017-04-06T03:30:17.687Z,20.18
2017-04-06T03:30:49.948Z,20.19
2017-04-06T03:31:22.232Z,20.23
2017-04-06T03:31:54.492Z,20.19
2017-04-06T03:32:26.781Z,20.22
2017-04-06T03:32:59.043Z,20.19
2017-04-06T03:33:31.318Z,20.2
2017-04-06T03:34:03.585Z,20.16
2017-04-06T03:34:35.846Z,20.16
2017-04-06T03:35:08.089Z,20.19
2017-04-06T03:35:40.349Z,20.16
2017-04-06T03:36:12.616Z,20.16
2017-04-06T03:36:44.894Z,20.19
2017-04-06T03:37:17.177Z,20.26
2017-04-06T03:37:49.427Z,20.12
2017-04-06T03:38:21.671Z,20.15
2017-04-06T03:38:53.915Z,20.22
2017-04-06T03:39:26.162Z,20.23
2017-04-06T03:39:58.418Z,20.15
2017-04-06T03:40:30.661Z,20.15
2017-04-06T03:41:02.915Z,20.19
2017-04-06T03:41:35.184Z,20.2
2017-04-06T03:42:07.441Z,20.05
2017-04-06T03:42:39.706Z,20.1
2017-04-06T03:43:11.945Z,20.08
2017-04-06T03:43:44.186Z,20.16
2017-04-06T03:44:16.442Z,20.18
2017-04-06T03:44:48.709Z,20.16
2017-04-06T03:45:20.938Z,20.2
2017-04-06T03:45:53.217Z,20.12
2017-04-06T03:46:25.454Z,20.18
2017-04-06T03:46:58.390Z,20.19
2017-04-06T03:47:30.668Z,20.18
2017-04-06T03:48:03.498Z,20.2
2017-04-06T03:48:35.767Z,20.19
2017-04-06T03:49:08.034Z,20.1
2017-04-06T03:49:40.284Z,20.1
2017-04-06T03:50:12.650Z,20.18
2017-04-06T03:50:45.769Z,20.15
2017-04-06T03:51:18.007Z,20.11
2017-04-06T03:51:50.271Z,20.16
2017-04-06T03:52:22.582Z,20.18
2017-04-06T03:52:54.891Z,20.16
2017-04-06T03:53:27.194Z,20.2
2017-04-06T03:53:59.519Z,20.12
2017-04-06T03:54:31.829Z,20.22
2017-04-06T03:55:04.127Z,20.16
2017-04-06T03:55:36.430Z,20.18
2017-04-06T03:56:08.742Z,20.2
2017-04-06T03:56:41.059Z,20.22
2017-04-06T03:57:13.358Z,20.19
2017-04-06T03:57:45.654Z,20.19
2017-04-06T03:58:17.961Z,20.19
2017-04-06T03:58:50.269Z,20.2
2017-04-06T03:59:22.568Z,20.19
2017-04-06T03:59:54.860Z,20.19
2017-04-06T04:00:27.166Z,20.23
2017-04-06T04:00:59.472Z,20.12
2017-04-06T04:01:31.789Z,20.18
2017-04-06T04:02:04.101Z,20.2
2017-04-06T04:02:36.406Z,20.12
2017-04-06T04:03:08.701Z,20.23
2017-04-06T04:03:40.998Z,20.29
2017-04-06T04:04:13.296Z,20.16
2017-04-06T04:04:45.587Z,20.18
2017-04-06T04:05:17.878Z,20.19
2017-04-06T04:05:50.171Z,20.18
2017-04-06T04:06:22.488Z,20.29
2017-04-06T04:06:54.791Z,20.25
2017-04-06T04:07:27.086Z,20.32
2017-04-06T04:07:59.385Z,20.18
2017-04-06T04:08:31.671Z,20.15
2017-04-06T04:09:03.977Z,20.26
2017-04-06T04:09:36.287Z,20.26
2017-04-06T04:10:08.602Z,20.26
2017-04-06T04:10:40.901Z,20.2
2017-04-06T04:11:13.195Z,20.27
2017-04-06T04:11:45.489Z,20.25
2017-04-06T04:12:17.792Z,20.29
2017-04-06T04:12:50.040Z,20.19
2017-04-06T04:13:22.344Z,20.27
2017-04-06T04:13:54.588Z,20.22
2017-04-06T04:14:26.852Z,20.23
2017-04-06T04:14:59.986Z,20.2
2017-04-06T04:15:32.275Z,20.26
2017-04-06T04:16:05.374Z,20.29
2017-04-06T04:16:37.684Z,20.29
2017-04-06T04:17:09.936Z,20.26
2017-04-06T04:17:42.211Z,20.26
2017-04-06T04:18:14.464Z,20.29
2017-04-06T04:18:46.713Z,20.26
2017-04-06T04:19:19.012Z,20.3
2017-04-06T04:19:51.247Z,20.16
2017-04-06T04:20:23.504Z,20.25
2017-04-06T04:20:55.746Z,20.32
2017-04-06T04:21:28.007Z,20.26
2017-04-06T04:22:00.246Z,20.2
2017-04-06T04:22:32.542Z,20.29
2017-04-06T04:23:04.835Z,20.32
2017-04-06T04:23:37.142Z,20.23
2017-04-06T04:24:09.466Z,20.26
2017-04-06T04:24:41.763Z,20.27
2017-04-06T04:25:14.078Z,20.27
2017-04-06T04:25:46.402Z,20.26
2017-04-06T04:26:18.700Z,20.3
2017-04-06T04:26:51.002Z,20.34
2017-04-06T04:27:23.327Z,20.27
2017-04-06T04:27:55.655Z,20.27
2017-04-06T04:28:27.973Z,20.29
2017-04-06T04:29:00.271Z,20.34
2017-04-06T04:29:32.599Z,20.3
2017-04-06T04:30:04.914Z,20.27
2017-04-06T04:30:37.227Z,20.26
2017-04-06T04:31:09.557Z,20.27
2017-04-06T04:31:41.850Z,20.32
2017-04-06T04:32:14.133Z,20.34
2017-04-06T04:32:46.435Z,20.25
2017-04-06T04:33:18.740Z,20.22
2017-04-06T04:33:51.046Z,20.27
2017-04-06T04:34:23.351Z,20.22
2017-04-06T04:34:55.654Z,20.23
2017-04-06T04:35:27.952Z,20.23
2017-04-06T04:36:00.241Z,20.26
2017-04-06T04:36:32.559Z,20.34
2017-04-06T04:37:04.862Z,20.23
2017-04-06T04:37:37.161Z,20.25
2017-04-06T04:38:09.464Z,20.2
2017-04-06T04:38:41.779Z,20.35
2017-04-06T04:39:14.084Z,20.22
2017-04-06T04:39:46.385Z,20.2
2017-04-06T04:40:18.691Z,20.29
2017-04-06T04:40:51.027Z,20.26
2017-04-06T04:41:23.331Z,20.25
2017-04-06T04:41:55.635Z,20.22
2017-04-06T04:42:27.944Z,20.26
2017-04-06T04:43:00.249Z,20.25
2017-04-06T04:43:32.566Z,20.27
2017-04-06T04:44:04.878Z,20.29
2017-04-06T04:44:37.175Z,20.4
2017-04-06T04:45:09.483Z,20.25
2017-04-06T04:45:41.780Z,20.25
2017-04-06T04:46:14.081Z,20.23
2017-04-06T04:46:46.384Z,20.26
2017-04-06T04:47:18.680Z,20.29
2017-04-06T04:47:50.984Z,20.26
2017-04-06T04:48:23.292Z,20.26
2017-04-06T04:48:55.577Z,20.35
2017-04-06T04:49:27.892Z,20.26
2017-04-06T04:50:00.187Z,20.25
2017-04-06T04:50:32.478Z,20.27
2017-04-06T04:51:04.787Z,20.25
2017-04-06T04:51:37.082Z,20.27
2017-04-06T04:52:09.379Z,20.32
2017-04-06T04:52:41.673Z,20.26
2017-04-06T04:53:13.966Z,20.27
2017-04-06T04:53:46.264Z,20.25
2017-04-06T04:54:18.552Z,20.2
2017-04-06T04:54:50.857Z,20.26
2017-04-06T04:55:23.154Z,20.25
2017-04-06T04:55:55.459Z,20.26
2017-04-06T04:56:27.780Z,20.25
2017-04-06T04:57:00.093Z,20.23
2017-04-06T04:57:32.398Z,20.27
2017-04-06T04:58:04.705Z,20.26
2017-04-06T04:58:37.006Z,20.26
2017-04-06T04:59:09.296Z,20.32
2017-04-06T04:59:41.589Z,20.27
2017-04-06T05:00:13.888Z,20.2
2017-04-06T05:00:46.196Z,20.34
2017-04-06T05:01:18.487Z,20.35
2017-04-06T05:01:50.800Z,20.26
2017-04-06T05:02:23.115Z,20.25
2017-04-06T05:02:55.437Z,20.22
2017-04-06T05:03:27.756Z,20.25
2017-04-06T05:04:00.049Z,20.2
2017-04-06T05:04:32.387Z,20.22
2017-04-06T05:05:04.688Z,20.22
2017-04-06T05:05:36.996Z,20.25
2017-04-06T05:06:09.294Z,20.23
2017-04-06T05:06:41.590Z,20.27
2017-04-06T05:07:13.882Z,20.2
2017-04-06T05:07:46.193Z,20.35
2017-04-06T05:08:18.500Z,20.26
2017-04-06T05:08:50.800Z,20.29
2017-04-06T05:09:23.098Z,20.26
2017-04-06T05:09:55.396Z,20.25
2017-04-06T05:10:27.712Z,20.27
2017-04-06T05:11:00.008Z,20.2
2017-04-06T05:11:32.319Z,20.25
2017-04-06T05:12:04.625Z,20.26
2017-04-06T05:12:36.877Z,20.23
2017-04-06T05:13:09.128Z,20.25
2017-04-06T05:13:41.435Z,20.26
2017-04-06T05:14:13.699Z,20.22
2017-04-06T05:14:45.951Z,20.27
2017-04-06T05:15:18.221Z,20.29
2017-04-06T05:15:50.496Z,20.25
2017-04-06T05:16:22.732Z,20.2
2017-04-06T05:16:55.053Z,20.27
2017-04-06T05:17:27.343Z,20.38
2017-04-06T05:17:59.599Z,20.35
2017-04-06T05:18:31.862Z,20.26
2017-04-06T05:19:04.146Z,20.23
2017-04-06T05:19:36.914Z,20.29
2017-04-06T05:20:09.158Z,20.26
2017-04-06T05:21:43.314Z,20.25
2017-04-06T05:22:15.572Z,20.34
2017-04-06T05:22:47.812Z,20.38
2017-04-06T05:23:20.072Z,20.25
2017-04-06T05:23:52.321Z,20.34
2017-04-06T05:24:25.596Z,20.26
2017-04-06T05:24:57.850Z,20.37
2017-04-06T05:25:30.104Z,20.25
2017-04-06T05:26:02.382Z,20.35
2017-04-06T05:26:34.639Z,20.29
2017-04-06T05:27:06.886Z,20.25
2017-04-06T05:27:39.151Z,20.34
2017-04-06T05:28:11.390Z,20.26
2017-04-06T05:28:44.141Z,20.32
2017-04-06T05:29:16.398Z,20.37
2017-04-06T05:29:48.653Z,20.32
2017-04-06T05:30:20.891Z,20.32
2017-04-06T05:30:53.126Z,20.41
2017-04-06T05:31:25.364Z,20.27
2017-04-06T05:31:58.643Z,20.38
2017-04-06T05:32:30.887Z,20.26
2017-04-06T05:33:03.143Z,20.35
2017-04-06T05:33:35.390Z,20.42
2017-04-06T05:34:07.625Z,20.29
2017-04-06T05:34:39.865Z,20.37
2017-04-06T05:35:12.245Z,20.35
2017-04-06T05:35:45.216Z,20.32
2017-04-06T05:36:17.475Z,20.34
2017-04-06T05:36:49.809Z,20.32
2017-04-06T05:37:22.059Z,20.38
2017-04-06T05:37:54.305Z,20.35
2017-04-06T05:38:26.557Z,20.35
2017-04-06T05:39:00.098Z,20.23
2017-04-06T05:39:32.339Z,20.37
2017-04-06T05:40:05.218Z,20.32
2017-04-06T05:40:37.500Z,20.35
2017-04-06T05:41:09.759Z,20.4
2017-04-06T05:41:42.020Z,20.37
2017-04-06T05:42:15.086Z,20.32
2017-04-06T05:42:47.352Z,20.41
2017-04-06T05:43:20.205Z,20.35
2017-04-06T05:43:52.462Z,20.4
2017-04-06T05:44:24.715Z,20.38
2017-04-06T05:44:56.964Z,20.35
2017-04-06T05:45:29.209Z,20.4
2017-04-06T05:46:01.456Z,20.38
2017-04-06T05:46:33.710Z,20.38
2017-04-06T05:47:05.960Z,20.34
2017-04-06T05:47:38.774Z,20.38
2017-04-06T05:48:11.015Z,20.35
2017-04-06T05:48:43.257Z,20.42
2017-04-06T05:49:15.495Z,20.32
2017-04-06T05:49:47.779Z,20.35
2017-04-06T05:50:20.025Z,20.34
2017-04-06T05:50:53.161Z,20.37
2017-04-06T05:51:26.252Z,20.38
2017-04-06T05:51:58.523Z,20.34
2017-04-06T05:52:30.829Z,20.41
2017-04-06T05:53:03.139Z,20.37
2017-04-06T05:53:36.261Z,20.35
2017-04-06T05:54:08.561Z,20.38
2017-04-06T05:54:40.870Z,20.37
2017-04-06T05:55:13.160Z,20.35
2017-04-06T05:55:45.455Z,20.42
2017-04-06T05:56:17.765Z,20.46
2017-04-06T05:56:50.065Z,20.41
2017-04-06T05:57:22.388Z,20.41
2017-04-06T05:57:55.387Z,20.42
2017-04-06T05:58:28.038Z,20.41
2017-04-06T05:59:00.339Z,20.41
2017-04-06T05:59:32.644Z,20.4
2017-04-06T06:00:04.970Z,20.46
2017-04-06T06:00:37.264Z,20.41
2017-04-06T06:01:09.590Z,20.49
2017-04-06T06:01:41.642Z,20.41
2017-04-06T06:02:13.936Z,20.44
2017-04-06T06:02:46.218Z,20.44
2017-04-06T06:03:18.509Z,20.44
2017-04-06T06:03:50.799Z,20.51
2017-04-06T06:04:23.117Z,20.53
2017-04-06T06:04:55.421Z,20.56
2017-04-06T06:05:27.717Z,20.53
2017-04-06T06:06:00.013Z,20.49
2017-04-06T06:06:32.317Z,20.56
2017-04-06T06:07:04.619Z,20.48
2017-04-06T06:07:36.932Z,20.51
2017-04-06T06:08:10.223Z,20.61
2017-04-06T06:08:42.506Z,20.53
2017-04-06T06:09:14.847Z,20.6
2017-04-06T06:09:47.168Z,20.57
2017-04-06T06:10:19.479Z,20.54
2017-04-06T06:10:51.778Z,20.51
2017-04-06T06:11:24.084Z,20.57
2017-04-06T06:11:56.386Z,20.61
2017-04-06T06:12:28.700Z,20.66
2017-04-06T06:13:00.990Z,20.61
2017-04-06T06:13:33.293Z,20.57
2017-04-06T06:14:05.587Z,20.68
2017-04-06T06:14:37.895Z,20.66
2017-04-06T06:15:10.233Z,20.68
2017-04-06T06:15:42.527Z,20.71
2017-04-06T06:16:14.844Z,20.72
2017-04-06T06:16:47.189Z,20.67
2017-04-06T06:17:19.543Z,20.74
2017-04-06T06:17:51.848Z,20.74
2017-04-06T06:18:24.139Z,20.74
2017-04-06T06:18:56.433Z,20.72
2017-04-06T06:19:28.734Z,20.68
2017-04-06T06:20:01.023Z,20.76
2017-04-06T06:20:33.349Z,20.72
2017-04-06T06:21:05.651Z,20.68
2017-04-06T06:21:37.962Z,20.74
2017-04-06T06:22:10.260Z,20.78
2017-04-06T06:22:42.556Z,20.85
2017-04-06T06:23:14.849Z,20.85
2017-04-06T06:23:47.135Z,20.82
2017-04-06T06:24:19.429Z,20.79
2017-04-06T06:24:51.728Z,20.82
2017-04-06T06:25:24.017Z,20.9
2017-04-06T06:25:56.318Z,20.91
2017-04-06T06:26:28.622Z,20.91
2017-04-06T06:27:00.910Z,20.93
2017-04-06T06:27:33.230Z,20.93
2017-04-06T06:28:05.532Z,20.94
2017-04-06T06:28:37.833Z,20.88
2017-04-06T06:29:10.136Z,20.98
2017-04-06T06:29:42.436Z,20.98
2017-04-06T06:30:14.747Z,20.91
2017-04-06T06:30:47.049Z,20.96
2017-04-06T06:31:19.347Z,20.88
2017-04-06T06:31:51.636Z,20.98
2017-04-06T06:32:23.931Z,21.04
2017-04-06T06:32:56.254Z,20.94
2017-04-06T06:33:28.571Z,21.03
2017-04-06T06:34:01.103Z,21.01
2017-04-06T06:34:33.671Z,21.01
2017-04-06T06:35:05.958Z,21.11
2017-04-06T06:35:38.256Z,21.11
2017-04-06T06:36:10.548Z,21.16
2017-04-06T06:36:42.856Z,21.19
2017-04-06T06:37:15.147Z,21.22
2017-04-06T06:37:47.444Z,21.16
2017-04-06T06:38:19.749Z,21.25
2017-04-06T06:38:52.308Z,21.21
2017-04-06T06:39:25.461Z,21.27
2017-04-06T06:39:57.764Z,21.28
2017-04-06T06:40:30.055Z,21.31
2017-04-06T06:41:02.360Z,21.34
2017-04-06T06:41:34.684Z,21.37
2017-04-06T06:42:06.967Z,21.43
2017-04-06T06:42:39.235Z,21.36
2017-04-06T06:43:11.481Z,21.36
2017-04-06T06:43:43.748Z,21.41
2017-04-06T06:44:15.984Z,21.4
2017-04-06T06:44:48.228Z,21.49
2017-04-06T06:45:20.476Z,21.53
2017-04-06T06:45:52.732Z,21.51
2017-04-06T06:46:25.011Z,21.51
2017-04-06T06:46:57.379Z,21.49
2017-04-06T06:47:29.635Z,21.45
2017-04-06T06:48:01.883Z,21.53
2017-04-06T06:48:34.127Z,21.43
2017-04-06T06:49:06.400Z,21.56
2017-04-06T06:49:38.665Z,21.58
2017-04-06T06:50:10.919Z,21.49
2017-04-06T06:50:44.069Z,21.49
2017-04-06T06:51:16.311Z,21.53
2017-04-06T06:51:48.557Z,21.53
2017-04-06T06:52:20.810Z,21.49
2017-04-06T06:52:53.055Z,21.62
2017-04-06T06:53:25.291Z,21.56
2017-04-06T06:53:57.680Z,21.62
2017-04-06T06:54:29.947Z,21.58
2017-04-06T06:55:02.205Z,21.61
2017-04-06T06:55:34.450Z,21.61
2017-04-06T06:56:06.695Z,21.62
2017-04-06T06:56:38.962Z,21.62
2017-04-06T06:57:11.247Z,21.67
2017-04-06T06:57:43.522Z,21.64
2017-04-06T06:58:15.810Z,21.64
2017-04-06T06:58:48.071Z,21.62